Time;durP1;ratioP1;P1;durP2;ratioP2;P2;SDS_P1;SDS_P2;PMS_P1;PMS_P2;Temp;Humidity;BMP_temperature;BMP_pressure;BME280_temperature;BME280_humidity;BME280_pressure;Samples;Min_cycle;Max_cycle;Signal;HPM_P1;HPM_P2
2022/02/14 00:00:10;;;;;;;6.40;3.87;;;8.70;99.90;;;;;;5055263;28;20281;-68
2022/02/14 00:02:37;;;;;;;5.27;3.43;;;8.80;99.90;;;;;;5063544;28;20177;-69
2022/02/14 00:05:03;;;;;;;4.13;3.57;;;8.70;99.90;;;;;;5074971;28;20443;-69
2022/02/14 00:07:30;;;;;;;4.10;3.70;;;8.70;99.90;;;;;;5091935;28;20445;-68
2022/02/14 00:09:55;;;;;;;6.57;4.07;;;8.70;99.90;;;;;;5098670;28;20435;-68
2022/02/14 00:12:21;;;;;;;4.83;3.80;;;8.70;99.90;;;;;;5098716;28;20494;-68
2022/02/14 00:14:46;;;;;;;5.05;4.47;;;8.70;99.90;;;;;;5098048;28;20415;-67
2022/02/14 00:17:12;;;;;;;7.37;4.30;;;8.70;99.90;;;;;;5069341;28;20182;-68
2022/02/14 00:19:37;;;;;;;4.07;3.67;;;8.70;99.90;;;;;;5073453;28;20188;-69
2022/02/14 00:22:03;;;;;;;4.83;3.50;;;8.70;99.90;;;;;;5074709;28;20184;-69
2022/02/14 00:24:29;;;;;;;8.20;4.13;;;8.70;99.90;;;;;;5074825;28;20205;-68
2022/02/14 00:26:54;;;;;;;4.33;3.70;;;8.70;99.90;;;;;;5074734;28;20423;-68
2022/02/14 00:29:23;;;;;;;4.27;3.80;;;8.70;99.90;;;;;;5074437;28;20552;-68
2022/02/14 00:31:49;;;;;;;4.53;3.83;;;8.70;99.90;;;;;;5074538;28;20337;-69
2022/02/14 00:34:16;;;;;;;6.40;3.80;;;8.70;99.90;;;;;;5074765;28;20446;-69
2022/02/14 00:36:42;;;;;;;6.70;4.20;;;8.70;99.90;;;;;;5073098;28;20918;-70
2022/02/14 00:39:09;;;;;;;7.43;4.60;;;8.70;99.90;;;;;;5061947;28;20512;-68
2022/02/14 00:41:34;;;;;;;8.33;3.47;;;8.70;99.90;;;;;;5054448;28;20447;-68
2022/02/14 00:44:00;;;;;;;5.50;4.10;;;8.70;99.90;;;;;;5052794;28;20960;-68
2022/02/14 00:46:25;;;;;;;4.90;3.47;;;8.70;99.90;;;;;;5054650;28;20236;-69
2022/02/14 00:48:51;;;;;;;4.80;3.80;;;8.70;99.90;;;;;;5054758;28;20657;-69
2022/02/14 00:51:16;;;;;;;3.47;3.17;;;8.70;99.90;;;;;;5054497;28;20208;-68
2022/02/14 00:53:42;;;;;;;3.50;3.03;;;8.70;99.90;;;;;;5066846;28;20214;-68
2022/02/14 00:56:08;;;;;;;6.57;4.10;;;8.70;99.90;;;;;;5074844;28;20248;-68
2022/02/14 00:58:33;;;;;;;5.90;3.57;;;8.70;99.90;;;;;;5068941;28;20183;-68
2022/02/14 01:00:59;;;;;;;6.10;3.80;;;8.70;99.90;;;;;;5072098;28;20792;-69
2022/02/14 01:03:24;;;;;;;3.90;3.20;;;8.70;99.90;;;;;;5068500;28;20527;-68
2022/02/14 01:05:50;;;;;;;3.60;3.30;;;8.70;99.90;;;;;;5055442;28;20201;-69
2022/02/14 01:08:15;;;;;;;10.00;3.73;;;8.70;99.90;;;;;;5054513;28;20261;-69
2022/02/14 01:10:41;;;;;;;6.53;4.10;;;8.70;99.90;;;;;;5073763;28;20542;-68
2022/02/14 01:13:06;;;;;;;4.90;3.47;;;8.70;99.90;;;;;;5073755;28;20166;-69
2022/02/14 01:15:32;;;;;;;4.60;3.30;;;8.70;99.90;;;;;;5075816;28;20190;-69
2022/02/14 01:17:57;;;;;;;4.80;3.33;;;8.70;99.90;;;;;;5091907;28;20177;-68
2022/02/14 01:20:23;;;;;;;3.90;3.43;;;8.70;99.90;;;;;;5097146;28;20187;-69
2022/02/14 01:22:49;;;;;;;5.23;3.47;;;8.70;99.90;;;;;;5095779;28;20173;-70
2022/02/14 01:25:14;;;;;;;4.80;3.40;;;8.70;99.90;;;;;;5096053;28;20446;-69
2022/02/14 01:27:42;;;;;;;8.43;3.53;;;8.70;99.90;;;;;;5085372;28;20162;-67
2022/02/14 01:30:09;;;;;;;5.60;3.70;;;8.70;99.90;;;;;;5063043;28;20183;-68
2022/02/14 01:32:35;;;;;;;3.77;3.47;;;8.80;99.90;;;;;;5054561;28;20904;-68
2022/02/14 01:35:01;;;;;;;7.20;3.53;;;8.80;99.90;;;;;;5054318;28;20462;-68
2022/02/14 01:37:27;;;;;;;5.10;3.83;;;8.80;99.90;;;;;;5055003;28;20630;-67
2022/02/14 01:39:52;;;;;;;5.43;3.47;;;8.80;99.90;;;;;;5054467;28;20170;-68
2022/02/14 01:42:18;;;;;;;5.40;3.80;;;8.80;99.90;;;;;;5053720;28;20248;-68
2022/02/14 01:44:46;;;;;;;3.80;3.10;;;8.80;99.90;;;;;;5055132;28;20208;-68
2022/02/14 01:47:16;;;;;;;4.70;3.33;;;8.80;99.90;;;;;;5054441;28;20384;-68
2022/02/14 01:49:43;;;;;;;4.20;3.57;;;8.80;99.90;;;;;;5054687;28;20891;-68
2022/02/14 01:52:10;;;;;;;4.57;3.33;;;8.80;99.90;;;;;;5053947;28;20502;-69
2022/02/14 01:54:37;;;;;;;4.20;3.30;;;8.80;99.90;;;;;;5053830;28;20512;-68
2022/02/14 01:57:04;;;;;;;5.07;3.43;;;8.80;99.90;;;;;;5053970;28;20870;-68
2022/02/14 01:59:30;;;;;;;7.07;3.43;;;8.80;99.90;;;;;;5054756;28;20436;-68
2022/02/14 02:01:55;;;;;;;5.30;4.30;;;8.80;99.90;;;;;;5068925;28;20425;-67
2022/02/14 02:04:21;;;;;;;6.13;3.80;;;8.80;99.90;;;;;;5063732;28;20236;-69
2022/02/14 02:06:47;;;;;;;4.67;3.33;;;8.70;99.90;;;;;;5072625;28;20177;-69
2022/02/14 02:09:12;;;;;;;4.10;3.60;;;8.70;99.90;;;;;;5073097;28;20188;-69
2022/02/14 02:14:23;;;;;;;5.50;3.50;;;8.70;99.90;;;;;;5073091;28;20668;-68
2022/02/14 02:16:49;;;;;;;8.93;3.70;;;8.70;99.90;;;;;;5073699;28;20416;-69
2022/02/14 02:19:15;;;;;;;6.97;4.70;;;8.60;99.90;;;;;;5053810;28;20423;-69
2022/02/14 02:21:49;;;;;;;4.60;3.33;;;8.60;99.90;;;;;;5052496;28;20416;-69
2022/02/14 02:24:19;;;;;;;5.60;3.80;;;8.70;99.90;;;;;;5034346;28;20453;-68
2022/02/14 02:26:46;;;;;;;5.30;3.53;;;8.60;99.90;;;;;;5052929;28;20455;-68
2022/02/14 02:29:14;;;;;;;5.53;3.30;;;8.60;99.90;;;;;;5053261;28;20403;-70
2022/02/14 02:31:41;;;;;;;5.13;3.70;;;8.60;99.90;;;;;;5052411;28;20464;-69
2022/02/14 02:34:06;;;;;;;6.23;3.50;;;8.60;99.90;;;;;;5053349;28;20452;-69
2022/02/14 02:36:32;;;;;;;6.23;3.87;;;8.60;99.90;;;;;;5084352;22;20504;-70
2022/02/14 02:38:58;;;;;;;4.23;3.57;;;8.60;99.90;;;;;;5070612;28;20173;-70
2022/02/14 02:41:23;;;;;;;7.60;4.03;;;8.60;99.90;;;;;;5071356;28;20926;-70
2022/02/14 02:43:48;;;;;;;7.43;4.10;;;8.60;99.90;;;;;;5070712;28;20177;-70
2022/02/14 02:46:14;;;;;;;4.57;3.10;;;8.50;99.90;;;;;;5063792;28;20198;-70
2022/02/14 02:48:40;;;;;;;4.77;3.77;;;8.50;99.90;;;;;;5051262;28;20170;-70
2022/02/14 02:51:05;;;;;;;6.33;3.30;;;8.50;99.90;;;;;;5051038;28;20299;-70
2022/02/14 02:53:32;;;;;;;3.20;2.90;;;8.50;99.90;;;;;;5050589;28;20171;-70
2022/02/14 02:56:03;;;;;;;4.73;4.03;;;8.50;99.90;;;;;;5051297;28;20597;-70
2022/02/14 02:58:28;;;;;;;6.20;3.47;;;8.40;99.90;;;;;;5048870;28;20413;-70
2022/02/14 03:00:54;;;;;;;4.77;3.23;;;8.40;99.90;;;;;;5049133;28;21196;-70
2022/02/14 03:03:20;;;;;;;3.60;3.10;;;8.40;99.90;;;;;;5032750;28;20211;-70
2022/02/14 03:05:45;;;;;;;4.90;3.30;;;8.40;99.90;;;;;;5051323;28;20737;-70
2022/02/14 03:08:11;;;;;;;5.40;3.30;;;8.40;99.90;;;;;;5054850;28;20188;-70
2022/02/14 03:10:36;;;;;;;3.87;3.47;;;8.40;99.90;;;;;;5054925;28;20212;-70
2022/02/14 03:13:02;;;;;;;5.93;3.63;;;8.40;99.90;;;;;;5055012;28;20174;-70
2022/02/14 03:15:28;;;;;;;4.23;3.50;;;8.50;99.90;;;;;;5037355;28;20177;-70
2022/02/14 03:17:53;;;;;;;3.80;3.10;;;8.40;99.90;;;;;;5055075;28;20175;-70
2022/02/14 03:20:19;;;;;;;5.37;3.93;;;8.40;99.90;;;;;;5055351;28;20899;-70
2022/02/14 03:22:44;;;;;;;4.20;3.80;;;8.50;99.90;;;;;;5054813;28;20170;-70
2022/02/14 03:25:13;;;;;;;6.77;3.10;;;8.50;99.90;;;;;;5055021;28;20207;-70
2022/02/14 03:27:39;;;;;;;3.67;3.33;;;8.50;99.90;;;;;;5054437;28;20592;-71
2022/02/14 03:30:05;;;;;;;4.30;3.50;;;8.50;99.90;;;;;;5054880;28;20410;-69
2022/02/14 03:32:31;;;;;;;3.83;3.33;;;8.60;99.90;;;;;;5053685;28;20458;-70
2022/02/14 03:34:57;;;;;;;3.67;3.20;;;8.60;99.90;;;;;;5054914;28;20487;-70
2022/02/14 03:37:22;;;;;;;5.53;5.03;;;8.60;99.90;;;;;;5054570;28;21253;-70
2022/02/14 03:39:48;;;;;;;8.77;3.30;;;8.60;99.90;;;;;;5054406;28;20204;-70
2022/02/14 03:42:13;;;;;;;6.70;3.67;;;8.60;99.90;;;;;;5053322;28;20176;-70
2022/02/14 03:44:39;;;;;;;5.10;3.10;;;8.60;99.90;;;;;;5054451;28;20179;-70
2022/02/14 03:47:04;;;;;;;3.03;2.73;;;8.60;99.90;;;;;;5054372;28;20194;-70
2022/02/14 03:49:30;;;;;;;4.33;3.10;;;8.60;99.90;;;;;;5054332;28;20166;-70
2022/02/14 03:51:55;;;;;;;6.50;3.43;;;8.60;99.90;;;;;;5053913;28;20201;-71
2022/02/14 03:54:21;;;;;;;3.90;2.93;;;8.60;99.90;;;;;;5053984;28;20185;-70
2022/02/14 03:56:46;;;;;;;4.63;2.90;;;8.70;99.90;;;;;;5054114;28;20695;-71
2022/02/14 03:59:13;;;;;;;5.03;3.40;;;8.70;99.90;;;;;;5054115;28;20578;-71
2022/02/14 04:01:39;;;;;;;5.10;2.70;;;8.70;99.90;;;;;;5054144;28;20227;-70
2022/02/14 04:04:04;;;;;;;2.93;2.73;;;8.70;99.90;;;;;;5054339;28;20400;-70
2022/02/14 04:06:30;;;;;;;5.10;3.30;;;8.80;99.90;;;;;;5053956;28;20237;-70
2022/02/14 04:08:55;;;;;;;4.93;2.50;;;8.70;99.90;;;;;;5054166;28;20188;-70
2022/02/14 04:11:21;;;;;;;4.70;2.73;;;8.80;99.90;;;;;;5053535;28;20234;-70
2022/02/14 04:13:46;;;;;;;4.13;2.90;;;8.90;99.90;;;;;;5054096;28;20649;-70
2022/02/14 04:16:12;;;;;;;4.60;2.87;;;8.90;99.90;;;;;;5053725;28;20190;-70
2022/02/14 04:18:37;;;;;;;5.07;2.70;;;8.90;99.90;;;;;;5053549;28;20171;-70
2022/02/14 04:21:03;;;;;;;4.00;2.83;;;8.90;99.90;;;;;;5049947;28;20654;-70
2022/02/14 04:23:28;;;;;;;3.50;2.87;;;9.00;99.90;;;;;;5053255;28;20184;-69
2022/02/14 04:25:54;;;;;;;3.40;2.73;;;9.00;99.90;;;;;;5053298;28;20264;-70
2022/02/14 04:28:20;;;;;;;3.10;2.43;;;9.00;99.90;;;;;;5053034;28;20189;-70
2022/02/14 04:30:45;;;;;;;3.60;2.57;;;9.10;99.90;;;;;;5053450;28;20220;-70
2022/02/14 04:33:11;;;;;;;3.10;2.40;;;9.10;99.90;;;;;;5052720;28;20769;-70
2022/02/14 04:35:37;;;;;;;3.70;2.30;;;9.20;99.90;;;;;;5053016;28;20178;-70
2022/02/14 04:38:03;;;;;;;4.10;3.00;;;9.20;99.90;;;;;;5053137;28;20202;-70
2022/02/14 04:40:35;;;;;;;2.93;2.20;;;9.20;99.90;;;;;;5053112;28;20176;-70
2022/02/14 04:43:01;;;;;;;4.10;2.50;;;9.30;99.90;;;;;;5034938;28;20518;-70
2022/02/14 04:45:28;;;;;;;2.90;2.30;;;9.30;99.90;;;;;;5053395;28;20500;-70
2022/02/14 04:47:53;;;;;;;2.57;2.37;;;9.30;99.90;;;;;;5053381;28;20423;-70
2022/02/14 04:50:19;;;;;;;3.50;2.80;;;9.30;99.90;;;;;;5052121;28;20423;-70
2022/02/14 04:52:44;;;;;;;3.70;2.60;;;9.30;99.90;;;;;;5052912;28;20181;-70
2022/02/14 04:55:10;;;;;;;2.67;2.47;;;9.30;99.90;;;;;;5053212;28;20170;-70
2022/02/14 04:57:36;;;;;;;4.30;2.47;;;9.30;99.90;;;;;;5052897;28;20232;-70
2022/02/14 05:00:05;;;;;;;2.87;2.47;;;9.30;99.90;;;;;;5053095;28;20496;-70
2022/02/14 05:02:30;;;;;;;3.07;2.70;;;9.40;99.90;;;;;;5052482;28;20247;-70
2022/02/14 05:04:56;;;;;;;2.93;2.63;;;9.40;99.90;;;;;;5052818;28;20821;-68
2022/02/14 05:07:21;;;;;;;6.57;3.00;;;9.40;99.90;;;;;;5052911;28;20197;-69
2022/02/14 05:09:47;;;;;;;2.83;2.30;;;9.40;99.90;;;;;;5053577;28;20248;-69
2022/02/14 05:12:12;;;;;;;5.60;2.60;;;9.30;99.90;;;;;;5065212;28;20253;-69
2022/02/14 05:14:38;;;;;;;2.60;2.20;;;9.40;99.90;;;;;;5052862;28;20666;-70
2022/02/14 05:17:04;;;;;;;4.33;2.50;;;9.40;99.90;;;;;;5053104;28;20200;-70
2022/02/14 05:19:29;;;;;;;3.10;2.70;;;9.40;99.90;;;;;;5052803;28;20185;-70
2022/02/14 05:21:55;;;;;;;2.90;2.70;;;9.40;99.90;;;;;;5052293;28;20193;-69
2022/02/14 05:24:20;;;;;;;4.40;2.50;;;9.50;99.90;;;;;;5052789;28;20247;-70
2022/02/14 05:26:45;;;;;;;2.30;2.10;;;9.40;99.90;;;;;;5034528;28;20875;-69
2022/02/14 05:29:11;;;;;;;3.30;2.23;;;9.40;99.90;;;;;;5051937;28;20177;-70
2022/02/14 05:31:36;;;;;;;2.20;2.07;;;9.50;99.90;;;;;;5052240;28;20217;-70
2022/02/14 05:34:02;;;;;;;2.90;2.57;;;9.50;99.90;;;;;;5051904;28;20613;-70
2022/02/14 05:36:28;;;;;;;3.73;2.80;;;9.50;99.90;;;;;;5049435;28;20224;-70
2022/02/14 05:38:53;;;;;;;2.60;2.20;;;9.50;99.90;;;;;;5052218;28;20684;-70
2022/02/14 05:41:21;;;;;;;4.20;2.93;;;9.50;99.90;;;;;;5052250;28;20177;-71
2022/02/14 05:43:47;;;;;;;3.40;2.80;;;9.50;99.90;;;;;;5051781;28;20178;-70
2022/02/14 05:46:13;;;;;;;3.20;2.70;;;9.50;99.90;;;;;;5051963;28;20448;-70
2022/02/14 05:48:46;;;;;;;3.00;2.70;;;9.50;99.90;;;;;;5049335;28;20517;-70
2022/02/14 05:51:14;;;;;;;3.30;2.90;;;9.50;99.90;;;;;;5052194;28;20700;-70
2022/02/14 05:53:40;;;;;;;3.70;2.43;;;9.50;99.90;;;;;;5050368;28;20421;-71
2022/02/14 05:56:06;;;;;;;3.73;2.60;;;9.50;99.90;;;;;;5051844;28;20800;-70
2022/02/14 05:58:33;;;;;;;3.50;2.50;;;9.50;99.90;;;;;;5051922;28;20850;-70
2022/02/14 06:00:58;;;;;;;3.00;2.43;;;9.50;99.90;;;;;;5048896;28;20505;-70
2022/02/14 06:03:24;;;;;;;4.30;2.77;;;9.50;99.90;;;;;;5049232;28;20944;-70
2022/02/14 06:05:49;;;;;;;3.70;2.10;;;9.50;99.90;;;;;;5051607;28;20186;-70
2022/02/14 06:08:15;;;;;;;2.37;2.13;;;9.50;99.90;;;;;;5046702;28;20183;-69
2022/02/14 06:10:40;;;;;;;2.50;2.30;;;9.50;99.90;;;;;;5046757;28;20724;-70
2022/02/14 06:13:06;;;;;;;3.60;2.23;;;9.50;99.90;;;;;;5042003;28;20665;-71
2022/02/14 06:15:31;;;;;;;3.23;2.70;;;9.50;99.90;;;;;;5046000;28;20282;-68
2022/02/14 06:17:57;;;;;;;3.77;2.47;;;9.50;99.90;;;;;;5045954;28;20616;-67
2022/02/14 06:20:22;;;;;;;2.43;2.20;;;9.50;99.90;;;;;;5040674;28;20539;-67
2022/02/14 06:22:48;;;;;;;2.50;1.80;;;9.50;99.90;;;;;;5048242;28;20177;-67
2022/02/14 06:25:13;;;;;;;3.07;2.23;;;9.60;99.90;;;;;;5041957;28;20185;-69
2022/02/14 06:27:39;;;;;;;2.50;2.27;;;9.50;99.90;;;;;;5051291;28;20247;-68
2022/02/14 06:30:06;;;;;;;4.40;2.67;;;9.60;99.90;;;;;;5044596;28;20220;-68
2022/02/14 06:32:32;;;;;;;6.00;2.23;;;9.60;99.90;;;;;;5045332;28;20713;-69
2022/02/14 06:34:58;;;;;;;8.70;2.87;;;9.60;99.90;;;;;;5044594;28;20421;-70
2022/02/14 06:37:24;;;;;;;2.53;2.30;;;9.60;99.90;;;;;;5049297;28;20506;-68
2022/02/14 06:39:50;;;;;;;2.37;2.17;;;9.60;99.90;;;;;;5047463;28;20782;-70
2022/02/14 06:42:18;;;;;;;4.03;2.43;;;9.60;99.90;;;;;;5044404;28;20181;-67
2022/02/14 06:44:43;;;;;;;4.00;2.20;;;9.60;99.90;;;;;;5045357;28;20417;-69
2022/02/14 06:47:09;;;;;;;2.53;2.33;;;9.60;99.90;;;;;;5045918;28;20482;-68
2022/02/14 06:49:34;;;;;;;4.60;2.43;;;9.70;99.90;;;;;;5049389;28;20182;-69
2022/02/14 06:52:01;;;;;;;3.57;2.40;;;9.60;99.90;;;;;;5049596;28;20197;-70
2022/02/14 06:54:26;;;;;;;4.03;2.53;;;9.60;99.90;;;;;;5045639;28;20177;-70
2022/02/14 06:56:52;;;;;;;3.83;2.33;;;9.60;99.90;;;;;;5048154;28;20444;-69
2022/02/14 06:59:19;;;;;;;5.53;2.83;;;9.60;99.90;;;;;;5045519;28;20663;-69
2022/02/14 07:01:44;;;;;;;2.77;2.20;;;9.70;99.90;;;;;;5046580;28;20244;-69
2022/02/14 07:04:10;;;;;;;2.63;2.43;;;9.70;99.90;;;;;;5027638;28;20428;-69
2022/02/14 07:06:36;;;;;;;3.37;2.27;;;9.70;99.90;;;;;;5044170;28;20206;-69
2022/02/14 07:09:02;;;;;;;2.37;2.03;;;9.70;99.90;;;;;;5032249;28;20478;-69
2022/02/14 07:11:28;;;;;;;2.10;1.97;;;9.70;99.90;;;;;;5037415;28;20476;-68
2022/02/14 07:13:53;;;;;;;5.10;2.70;;;9.70;99.90;;;;;;5040996;28;20419;-69
2022/02/14 07:16:19;;;;;;;3.83;2.40;;;9.70;99.90;;;;;;5045841;28;20241;-69
2022/02/14 07:18:45;;;;;;;6.30;2.43;;;9.80;99.90;;;;;;5046846;28;20206;-68
2022/02/14 07:21:10;;;;;;;2.20;2.00;;;9.80;99.90;;;;;;5050407;28;20240;-68
2022/02/14 07:23:36;;;;;;;3.20;2.37;;;9.80;99.90;;;;;;5050519;28;20235;-69
2022/02/14 07:26:01;;;;;;;2.53;2.33;;;9.80;99.90;;;;;;5048338;28;20217;-68
2022/02/14 07:28:27;;;;;;;2.20;2.00;;;9.80;99.90;;;;;;5050094;28;20202;-68
2022/02/14 07:30:53;;;;;;;3.60;2.20;;;9.90;99.90;;;;;;5049953;28;20739;-68
2022/02/14 07:33:19;;;;;;;2.60;2.40;;;9.80;99.90;;;;;;5049806;28;20171;-68
2022/02/14 07:35:45;;;;;;;2.43;2.23;;;9.90;99.90;;;;;;5050369;28;20253;-69
2022/02/14 07:38:10;;;;;;;2.10;1.90;;;9.90;99.90;;;;;;5050246;28;20435;-68
2022/02/14 07:40:36;;;;;;;2.33;2.13;;;10.00;99.90;;;;;;5049957;28;20670;-70
2022/02/14 07:43:02;;;;;;;2.87;1.97;;;10.00;99.90;;;;;;5049031;28;20230;-69
2022/02/14 07:45:28;;;;;;;4.20;2.33;;;10.00;99.90;;;;;;5050128;28;20666;-69
2022/02/14 07:47:53;;;;;;;2.73;2.43;;;10.00;99.90;;;;;;5050274;28;20260;-69
2022/02/14 07:50:20;;;;;;;4.53;2.67;;;10.00;99.90;;;;;;5042356;28;20913;-68
2022/02/14 07:52:45;;;;;;;3.73;2.50;;;10.00;99.90;;;;;;5041861;28;20182;-69
2022/02/14 07:55:11;;;;;;;2.13;2.03;;;10.10;99.90;;;;;;5053820;28;20431;-69
2022/02/14 07:57:37;;;;;;;4.43;2.30;;;10.10;99.90;;;;;;5053823;28;20652;-69
2022/02/14 08:00:04;;;;;;;3.83;1.80;;;10.10;99.90;;;;;;5053864;28;20182;-69
2022/02/14 08:02:29;;;;;;;3.57;1.60;;;10.20;99.90;;;;;;5053261;28;20175;-69
2022/02/14 08:04:55;;;;;;;4.73;2.43;;;10.20;99.90;;;;;;5053660;28;20507;-70
2022/02/14 08:07:21;;;;;;;5.20;2.33;;;10.20;99.90;;;;;;5053753;28;20197;-70
2022/02/14 08:09:46;;;;;;;3.93;2.10;;;10.30;99.90;;;;;;5054364;28;20712;-69
2022/02/14 08:12:12;;;;;;;3.40;2.37;;;10.30;99.90;;;;;;5053295;28;20194;-69
2022/02/14 08:14:39;;;;;;;2.93;1.90;;;10.30;99.90;;;;;;5034757;28;20654;-68
2022/02/14 08:17:06;;;;;;;3.00;2.37;;;10.30;99.90;;;;;;5055592;28;20182;-70
2022/02/14 08:19:33;;;;;;;3.93;2.20;;;10.30;99.90;;;;;;5063974;28;20412;-69
2022/02/14 08:21:59;;;;;;;3.73;2.30;;;10.30;99.90;;;;;;5049489;28;20397;-68
2022/02/14 08:24:24;;;;;;;3.23;2.20;;;10.30;99.90;;;;;;5049138;28;20440;-68
2022/02/14 08:26:50;;;;;;;2.40;2.17;;;10.40;99.90;;;;;;5049913;28;20862;-68
2022/02/14 08:29:16;;;;;;;2.40;2.20;;;10.30;99.90;;;;;;5049979;28;20178;-69
2022/02/14 08:31:41;;;;;;;4.23;2.10;;;10.30;99.90;;;;;;5049582;28;20561;-69
2022/02/14 08:34:07;;;;;;;3.13;2.30;;;10.40;99.90;;;;;;5048454;28;20417;-69
2022/02/14 08:36:33;;;;;;;3.33;2.33;;;10.40;99.90;;;;;;5048843;28;20235;-68
2022/02/14 08:38:59;;;;;;;2.83;2.53;;;10.40;99.90;;;;;;5049747;28;20264;-68
2022/02/14 08:41:24;;;;;;;3.30;2.80;;;10.40;99.90;;;;;;5049389;28;20174;-68
2022/02/14 08:43:51;;;;;;;4.93;2.53;;;10.40;99.90;;;;;;5049324;28;20514;-69
2022/02/14 08:46:20;;;;;;;3.10;2.27;;;10.40;99.90;;;;;;5049339;28;20635;-69
2022/02/14 08:48:47;;;;;;;3.33;2.53;;;10.40;99.90;;;;;;5049289;28;20417;-69
2022/02/14 08:51:12;;;;;;;6.80;2.20;;;10.50;99.90;;;;;;5049238;28;20456;-68
2022/02/14 08:53:38;;;;;;;3.07;2.77;;;10.50;99.90;;;;;;5048636;28;20868;-68
2022/02/14 08:56:06;;;;;;;2.30;2.10;;;10.50;99.90;;;;;;5030478;28;20194;-69
2022/02/14 08:58:33;;;;;;;2.20;2.10;;;10.60;99.90;;;;;;5049372;28;20397;-68
2022/02/14 09:01:00;;;;;;;2.60;2.40;;;10.60;99.90;;;;;;5048339;28;20991;-69
2022/02/14 09:03:26;;;;;;;3.00;2.63;;;10.70;99.90;;;;;;5047705;28;20401;-68
2022/02/14 09:05:52;;;;;;;2.33;2.13;;;10.70;99.90;;;;;;5048067;28;20447;-69
2022/02/14 09:08:17;;;;;;;2.90;2.17;;;10.80;99.90;;;;;;5049761;28;20217;-69
2022/02/14 09:10:43;;;;;;;3.20;2.30;;;10.80;99.90;;;;;;5048380;28;20233;-68
2022/02/14 09:13:08;;;;;;;2.60;2.33;;;10.80;99.90;;;;;;5048607;28;20213;-69
2022/02/14 09:15:34;;;;;;;4.40;2.20;;;10.80;99.90;;;;;;5048989;28;20173;-68
2022/02/14 09:17:59;;;;;;;2.23;2.03;;;10.80;99.90;;;;;;5049316;28;20520;-69
2022/02/14 09:20:25;;;;;;;4.33;2.50;;;10.90;99.90;;;;;;5049162;28;20182;-69
2022/02/14 09:22:52;;;;;;;2.37;2.20;;;10.90;99.90;;;;;;5046503;28;20221;-69
2022/02/14 09:25:17;;;;;;;2.17;1.97;;;10.80;99.90;;;;;;5043935;28;20268;-69
2022/02/14 09:27:43;;;;;;;3.30;2.10;;;10.90;99.90;;;;;;5039717;28;20520;-69
2022/02/14 09:30:09;;;;;;;3.57;2.00;;;10.90;99.90;;;;;;5029703;28;20180;-68
2022/02/14 09:32:35;;;;;;;3.50;2.27;;;10.90;99.90;;;;;;5044292;28;20943;-69
2022/02/14 09:35:01;;;;;;;2.40;1.93;;;11.00;99.90;;;;;;5046524;28;20432;-68
2022/02/14 09:37:26;;;;;;;3.33;2.13;;;11.00;99.90;;;;;;5047816;28;20324;-68
2022/02/14 09:39:52;;;;;;;5.23;2.30;;;11.00;99.90;;;;;;5027034;28;20635;-69
2022/02/14 09:42:18;;;;;;;2.30;2.10;;;11.00;99.90;;;;;;5049198;28;20277;-69
2022/02/14 09:44:45;;;;;;;2.60;2.40;;;11.00;99.90;;;;;;5046392;28;20866;-69
2022/02/14 09:47:11;;;;;;;2.70;2.50;;;11.00;99.90;;;;;;5045734;28;20967;-69
2022/02/14 09:49:41;;;;;;;2.63;2.27;;;11.00;99.90;;;;;;5043748;28;20424;-68
2022/02/14 09:52:07;;;;;;;2.80;2.00;;;11.00;99.90;;;;;;5042522;28;20593;-68
2022/02/14 09:54:33;;;;;;;4.73;2.30;;;11.00;99.90;;;;;;5047142;28;20425;-69
2022/02/14 09:56:58;;;;;;;2.70;2.20;;;11.00;99.90;;;;;;5046982;28;21144;-69
2022/02/14 09:59:24;;;;;;;4.40;2.30;;;11.00;99.90;;;;;;5047854;28;20670;-68
2022/02/14 10:01:50;;;;;;;3.40;2.33;;;11.00;99.90;;;;;;5047924;28;20956;-68
2022/02/14 10:04:15;;;;;;;2.40;2.00;;;11.10;99.90;;;;;;5047436;28;20190;-68
2022/02/14 10:06:43;;;;;;;2.60;2.17;;;11.10;99.90;;;;;;5046276;28;20253;-69
2022/02/14 10:09:22;;;;;;;2.07;1.90;;;11.10;99.90;;;;;;5045661;28;20772;-68
2022/02/14 10:12:05;;;;;;;3.50;1.83;;;11.10;99.90;;;;;;5042831;28;20460;-68
2022/02/14 10:14:32;;;;;;;3.00;2.30;;;11.10;99.90;;;;;;5027744;28;21281;-71
2022/02/14 10:16:59;;;;;;;2.40;2.20;;;11.10;99.90;;;;;;5043439;28;21140;-68
2022/02/14 10:19:25;;;;;;;1.83;1.63;;;11.10;99.90;;;;;;5043825;28;20762;-69
2022/02/14 10:21:51;;;;;;;1.80;1.70;;;11.10;99.90;;;;;;5042613;28;20412;-69
2022/02/14 10:24:17;;;;;;;2.07;1.87;;;11.10;99.90;;;;;;5046655;28;20591;-69
2022/02/14 10:26:49;;;;;;;2.23;1.70;;;11.10;99.90;;;;;;5047224;28;20432;-69
2022/02/14 10:29:15;;;;;;;2.60;1.77;;;11.10;99.90;;;;;;5046386;28;20679;-69
2022/02/14 10:31:42;;;;;;;2.10;1.53;;;11.20;99.90;;;;;;5028954;28;20471;-69
2022/02/14 10:34:08;;;;;;;1.63;1.40;;;11.10;99.90;;;;;;5046766;28;20265;-69
2022/02/14 10:36:36;;;;;;;3.93;1.50;;;11.10;99.90;;;;;;5047106;28;20563;-69
2022/02/14 10:39:16;;;;;;;4.33;1.90;;;11.10;99.90;;;;;;5047030;28;20240;-69
2022/02/14 10:41:43;;;;;;;2.03;1.63;;;11.10;99.90;;;;;;5047214;28;20482;-69
2022/02/14 10:45:07;;;;;;;2.10;2.00;;;11.10;99.90;;;;;;5047218;28;20430;-69
2022/02/14 10:47:25;;;;;;;1.60;1.40;;;11.10;99.90;;;;;;5048059;28;20445;-69
2022/02/14 10:50:07;;;;;;;1.10;1.10;;;11.10;99.90;;;;;;5050762;28;20438;-67
2022/02/14 10:52:53;;;;;;;2.27;1.50;;;11.10;99.90;;;;;;5043932;28;20471;-67
2022/02/14 10:55:42;;;;;;;1.40;1.30;;;11.20;99.90;;;;;;5043471;28;20427;-67
2022/02/14 10:58:08;;;;;;;1.33;1.33;;;11.20;99.90;;;;;;5046634;28;20967;-68
2022/02/14 11:00:36;;;;;;;2.27;2.10;;;11.20;99.90;;;;;;5044548;28;20543;-67
2022/02/14 11:03:06;;;;;;;1.80;1.70;;;11.20;99.90;;;;;;5024826;28;20833;-67
2022/02/14 11:05:32;;;;;;;3.10;1.67;;;11.30;99.90;;;;;;5046422;28;20828;-68
2022/02/14 11:07:59;;;;;;;1.87;1.67;;;11.20;99.90;;;;;;5041929;28;20438;-68
2022/02/14 11:10:26;;;;;;;4.53;2.27;;;11.20;99.90;;;;;;5047335;28;20527;-68
2022/02/14 11:12:54;;;;;;;1.83;1.53;;;11.10;99.90;;;;;;5046865;28;20424;-68
2022/02/14 11:15:23;;;;;;;2.20;1.83;;;11.10;99.90;;;;;;5046409;28;20584;-68
2022/02/14 11:18:08;;;;;;;2.00;1.80;;;11.20;99.90;;;;;;5046957;28;21243;-69
2022/02/14 11:20:34;;;;;;;1.75;1.65;;;11.10;99.90;;;;;;5027472;28;20428;-69
2022/02/14 11:23:01;;;;;;;1.83;1.70;;;11.10;99.90;;;;;;5046241;28;20192;-68
2022/02/14 11:25:47;;;;;;;2.33;1.60;;;11.10;99.90;;;;;;5042622;28;20281;-68
2022/02/14 11:28:31;;;;;;;2.00;1.80;;;11.10;99.90;;;;;;5048654;28;20624;-68
2022/02/14 11:31:18;;;;;;;3.63;1.23;;;11.10;99.90;;;;;;5041078;28;20230;-69
2022/02/14 11:33:50;;;;;;;2.20;1.77;;;11.00;99.90;;;;;;5038772;28;20649;-68
2022/02/14 11:36:16;;;;;;;2.50;2.00;;;11.10;99.90;;;;;;5048905;28;20494;-68
2022/02/14 11:38:42;;;;;;;2.70;1.93;;;11.00;99.90;;;;;;5050076;28;20839;-69
2022/02/14 11:41:46;;;;;;;4.07;2.27;;;11.00;99.90;;;;;;5045450;28;20218;-68
2022/02/14 11:44:16;;;;;;;2.33;1.80;;;10.90;99.90;;;;;;5029972;28;20495;-68
2022/02/14 11:46:54;;;;;;;1.93;1.83;;;10.80;99.90;;;;;;5044664;28;20468;-68
2022/02/14 11:49:32;;;;;;;3.30;2.17;;;10.70;99.90;;;;;;5050589;28;20497;-69
2022/02/14 11:51:59;;;;;;;3.10;2.10;;;10.70;99.90;;;;;;5046469;28;20481;-69
2022/02/14 11:54:46;;;;;;;2.20;2.00;;;10.70;99.90;;;;;;5048488;28;20448;-69
2022/02/14 11:57:14;;;;;;;3.60;2.47;;;10.80;99.90;;;;;;5048732;28;20440;-69
2022/02/14 11:59:39;;;;;;;6.70;1.93;;;10.90;99.90;;;;;;5044597;28;20951;-69
2022/02/14 12:02:05;;;;;;;3.00;1.70;;;10.90;99.90;;;;;;5043727;28;20535;-69
2022/02/14 12:07:20;;;;;;;1.80;1.60;;;11.00;99.90;;;;;;5044219;28;20206;-69
2022/02/14 12:10:00;;;;;;;3.00;1.47;;;11.00;99.90;;;;;;5040549;28;20456;-69
2022/02/14 12:12:43;;;;;;;3.27;2.40;;;11.00;99.90;;;;;;5045231;28;20971;-69
2022/02/14 12:21:12;;;;;;;1.80;1.70;;;11.20;99.90;;;;;;5044187;28;20830;-68
2022/02/14 12:23:44;;;;;;;2.97;1.97;;;11.20;99.90;;;;;;5048194;28;20479;-69
2022/02/14 12:26:15;;;;;;;1.63;1.53;;;11.20;99.90;;;;;;5042401;28;20555;-69
2022/02/14 12:28:43;;;;;;;2.07;1.97;;;11.20;99.90;;;;;;5043285;28;20474;-69
2022/02/14 12:31:09;;;;;;;4.90;1.87;;;11.20;99.90;;;;;;5038847;28;20476;-68
2022/02/14 12:33:36;;;;;;;1.70;1.50;;;11.10;99.90;;;;;;5046120;28;20523;-68
2022/02/14 12:36:04;;;;;;;4.00;2.20;;;11.10;99.90;;;;;;5046497;28;20579;-69
2022/02/14 12:38:35;;;;;;;1.60;1.50;;;11.20;99.90;;;;;;5044994;28;20607;-68
2022/02/14 12:41:10;;;;;;;1.73;1.63;;;11.10;99.90;;;;;;5049276;28;20456;-68
2022/02/14 12:43:42;;;;;;;2.77;1.23;;;11.00;99.90;;;;;;5027880;28;20448;-69
2022/02/14 12:46:22;;;;;;;1.77;1.67;;;11.00;99.90;;;;;;5043497;28;20526;-68
2022/02/14 12:48:53;;;;;;;1.87;1.77;;;10.90;99.90;;;;;;5043041;28;20467;-70
2022/02/14 12:51:25;;;;;;;1.47;1.37;;;10.90;99.90;;;;;;5045502;28;20488;-68
2022/02/14 12:53:57;;;;;;;1.10;1.10;;;11.00;99.90;;;;;;5045938;28;20548;-68
2022/02/14 12:56:24;;;;;;;1.90;1.10;;;10.90;99.90;;;;;;5039849;28;20475;-69
2022/02/14 12:58:53;;;;;;;2.23;1.43;;;11.00;99.90;;;;;;5043447;28;20452;-69
2022/02/14 13:01:20;;;;;;;1.30;1.20;;;11.10;99.90;;;;;;5043081;28;20453;-67
2022/02/14 13:04:07;;;;;;;1.80;1.30;;;11.10;99.90;;;;;;5046773;28;20444;-69